createdAt,value
2023-03-13T00:04:43.744Z,96.10
2023-03-13T00:14:42.651Z,96.00
2023-03-13T00:24:41.823Z,96.40
2023-03-13T00:34:40.865Z,96.40
2023-03-13T00:44:41.305Z,96.60
2023-03-13T00:54:41.066Z,96.70
2023-03-13T01:04:39.848Z,97.10
2023-03-13T01:14:38.994Z,97.50
2023-03-13T01:24:38.364Z,98.10
2023-03-13T01:34:39.708Z,98.70
2023-03-13T01:44:42.384Z,99.10
2023-03-13T01:54:42.854Z,99.40
2023-03-13T02:04:41.909Z,99.80
2023-03-13T02:14:40.954Z,99.90
2023-03-13T02:24:40.089Z,99.90
2023-03-13T02:34:39.034Z,99.90
2023-03-13T02:44:37.989Z,99.90
2023-03-13T02:54:39.613Z,99.90
2023-03-13T03:04:38.940Z,99.90
2023-03-13T03:14:39.519Z,99.90
2023-03-13T03:24:39.082Z,99.90
2023-03-13T03:34:38.541Z,99.90
2023-03-13T03:44:38.480Z,99.90
2023-03-13T03:54:38.078Z,99.90
2023-03-13T04:04:38.898Z,99.90
2023-03-13T04:14:39.804Z,99.90
2023-03-13T04:24:39.170Z,99.90
2023-03-13T04:34:48.754Z,99.90
2023-03-13T04:44:55.762Z,99.90
2023-03-13T04:55:02.814Z,99.90
2023-03-13T05:05:20.531Z,99.90
2023-03-13T05:15:21.798Z,99.90
2023-03-13T05:25:28.672Z,99.90
2023-03-13T05:35:32.756Z,99.90
2023-03-13T05:45:45.849Z,99.90
2023-03-13T05:56:03.381Z,99.90
2023-03-13T06:06:12.753Z,99.90
2023-03-13T06:16:16.723Z,99.90
2023-03-13T06:26:16.117Z,99.90
2023-03-13T06:36:15.086Z,99.90
2023-03-13T06:46:14.012Z,99.90
2023-03-13T06:56:13.054Z,99.90
2023-03-13T07:06:12.469Z,99.90
2023-03-13T07:16:11.060Z,99.90
2023-03-13T07:26:09.903Z,99.90
2023-03-13T07:36:09.018Z,99.90
2023-03-13T07:46:08.074Z,99.90
2023-03-13T07:56:06.889Z,99.90
2023-03-13T08:06:05.989Z,99.90
2023-03-13T08:16:05.361Z,99.90
2023-03-13T08:26:03.964Z,99.90
2023-03-13T08:36:03.030Z,99.90
2023-03-13T08:46:02.111Z,99.90
2023-03-13T08:56:01.175Z,99.60
2023-03-13T09:05:59.953Z,99.30
2023-03-13T09:15:59.148Z,99.30
2023-03-13T09:26:01.068Z,99.60
2023-03-13T09:36:00.128Z,99.40
2023-03-13T09:45:59.194Z,98.90
2023-03-13T09:55:58.026Z,98.60
2023-03-13T10:05:56.975Z,98.30
2023-03-13T10:15:56.053Z,98.10
2023-03-13T10:25:55.083Z,97.00
2023-03-13T10:35:54.078Z,96.00
2023-03-13T10:45:53.194Z,95.70
2023-03-13T10:55:52.261Z,95.30
2023-03-13T11:05:51.069Z,95.20
2023-03-13T11:15:55.292Z,94.90
2023-03-13T11:25:54.109Z,94.60
2023-03-13T11:35:53.169Z,94.50
2023-03-13T11:45:52.460Z,94.20
2023-03-13T11:55:51.207Z,93.40
2023-03-13T12:05:51.133Z,92.90
2023-03-13T12:15:50.131Z,90.90
2023-03-13T12:25:49.179Z,90.20
2023-03-13T12:35:48.274Z,90.40
2023-03-13T12:45:47.330Z,90.00
2023-03-13T12:55:46.316Z,86.00
2023-03-13T13:05:45.173Z,85.80
2023-03-13T13:15:44.160Z,86.50
2023-03-13T13:25:43.118Z,86.90
2023-03-13T13:35:42.390Z,83.80
2023-03-13T13:45:41.157Z,83.20
2023-03-13T13:55:40.127Z,82.70
2023-03-13T14:05:39.119Z,81.40
2023-03-13T14:15:38.203Z,81.00
2023-03-13T14:25:37.238Z,82.30
2023-03-13T14:35:36.498Z,83.60
2023-03-13T14:45:36.545Z,84.10
2023-03-13T14:55:35.235Z,84.10
2023-03-13T15:05:34.223Z,84.70
2023-03-13T15:15:33.392Z,83.40
2023-03-13T15:25:32.165Z,84.20
2023-03-13T15:35:31.389Z,84.20
2023-03-13T15:45:30.436Z,84.40
2023-03-13T15:55:29.263Z,84.10
2023-03-13T16:05:28.753Z,82.70
2023-03-13T16:15:27.264Z,81.60
2023-03-13T16:25:26.508Z,80.50
2023-03-13T16:35:26.255Z,82.00
2023-03-13T16:45:25.257Z,79.50
2023-03-13T16:55:26.738Z,80.40
2023-03-13T17:05:25.337Z,81.30
2023-03-13T17:15:24.247Z,82.40
2023-03-13T17:25:23.471Z,83.50
2023-03-13T17:35:22.607Z,83.80
2023-03-13T17:45:21.687Z,84.50
2023-03-13T17:55:20.358Z,85.00
2023-03-13T18:05:19.466Z,85.00
2023-03-13T18:15:18.462Z,84.80
2023-03-13T18:25:17.607Z,84.50
2023-03-13T18:35:16.496Z,84.70
2023-03-13T18:45:15.325Z,85.00
2023-03-13T18:55:14.448Z,85.60
2023-03-13T19:05:13.560Z,85.60
2023-03-13T19:15:14.185Z,85.70
2023-03-13T19:25:15.670Z,85.70
2023-03-13T19:35:16.428Z,85.80
2023-03-13T19:45:18.221Z,86.20
2023-03-13T19:55:17.474Z,86.60
2023-03-13T20:05:16.455Z,86.10
2023-03-13T20:15:15.426Z,86.10
2023-03-13T20:25:15.586Z,86.50
2023-03-13T20:35:14.562Z,87.30
2023-03-13T20:45:13.585Z,87.90
2023-03-13T20:55:12.443Z,88.30
2023-03-13T21:05:11.472Z,88.60
2023-03-13T21:15:10.539Z,88.80
2023-03-13T21:25:09.568Z,89.30
2023-03-13T21:35:08.872Z,90.00
2023-03-13T21:45:07.757Z,90.10
2023-03-13T21:55:06.712Z,90.30
2023-03-13T22:05:05.492Z,90.40
2023-03-13T22:15:04.589Z,91.10
2023-03-13T22:25:03.442Z,91.30
2023-03-13T22:35:02.557Z,91.20
2023-03-13T22:45:01.765Z,91.10
2023-03-13T22:55:00.474Z,91.00
2023-03-13T23:05:00.731Z,90.90
2023-03-13T23:14:59.659Z,91.00
2023-03-13T23:24:58.536Z,91.10
2023-03-13T23:35:00.272Z,91.40
2023-03-13T23:45:01.886Z,91.50
2023-03-13T23:55:00.584Z,91.30
